createdAt,value
2023-04-11T00:01:08.023Z,97250.47
2023-04-11T00:03:34.735Z,97245.34
2023-04-11T00:06:01.575Z,97244.47
2023-04-11T00:08:28.094Z,97244.47
2023-04-11T00:10:54.669Z,97218.00
2023-04-11T00:13:21.437Z,97202.56
2023-04-11T00:15:48.036Z,97210.41
2023-04-11T00:18:14.690Z,97218.97
2023-04-11T00:20:41.246Z,97213.00
2023-04-11T00:23:08.878Z,97203.63
2023-04-11T00:25:37.249Z,97186.69
2023-04-11T00:28:04.308Z,97167.06
2023-04-11T00:30:31.037Z,97167.06
2023-04-11T00:32:57.640Z,97160.31
2023-04-11T00:35:24.410Z,97167.06
2023-04-11T00:37:56.040Z,97167.91
2023-04-11T00:40:23.035Z,97191.72
2023-04-11T00:42:49.567Z,97189.19
2023-04-11T00:45:16.190Z,97177.03
2023-04-11T00:47:42.797Z,97181.34
2023-04-11T00:50:09.685Z,97204.41
2023-04-11T00:52:36.529Z,97206.88
2023-04-11T00:55:03.497Z,97211.16
2023-04-11T00:57:30.911Z,97222.31
2023-04-11T00:59:58.248Z,97196.72
2023-04-11T01:02:25.132Z,97171.75
2023-04-11T01:04:51.752Z,97177.97
2023-04-11T01:07:18.275Z,97184.88
2023-04-11T01:09:44.852Z,97159.09
2023-04-11T01:12:11.691Z,97160.16
2023-04-11T01:14:38.330Z,97141.31
2023-04-11T01:17:05.086Z,97128.59
2023-04-11T01:19:32.045Z,97133.06
2023-04-11T01:21:58.839Z,97121.88
2023-04-11T01:24:25.667Z,97119.28
2023-04-11T01:26:52.247Z,97131.34
2023-04-11T01:29:18.838Z,97125.34
2023-04-11T01:31:45.532Z,97119.44
2023-04-11T01:34:14.145Z,97116.88
2023-04-11T01:36:41.643Z,97121.16
2023-04-11T01:39:08.242Z,97122.03
2023-04-11T01:41:35.739Z,97116.00
2023-04-11T01:44:03.876Z,97127.94
2023-04-11T01:46:30.506Z,97059.84
2023-04-11T01:48:58.183Z,97105.81
2023-04-11T01:51:24.854Z,97102.47
2023-04-11T01:53:51.386Z,97106.69
2023-04-11T01:56:17.926Z,97107.56
2023-04-11T01:58:44.514Z,97096.25
2023-04-11T02:01:13.279Z,97100.75
2023-04-11T02:03:39.969Z,97101.63
2023-04-11T02:06:06.663Z,97069.06
2023-04-11T02:08:33.170Z,97083.78
2023-04-11T02:10:59.697Z,97076.13
2023-04-11T02:13:26.237Z,97075.22
2023-04-11T02:15:52.829Z,97081.22
2023-04-11T02:18:19.446Z,97061.69
2023-04-11T02:20:46.001Z,97065.06
2023-04-11T02:23:12.762Z,97064.22
2023-04-11T02:25:39.380Z,97062.50
2023-04-11T02:28:08.109Z,97059.13
2023-04-11T02:30:34.936Z,97043.75
2023-04-11T02:33:01.707Z,97054.03
2023-04-11T02:35:28.403Z,97052.31
2023-04-11T02:37:54.939Z,97054.03
2023-04-11T02:40:21.457Z,97059.09
2023-04-11T02:42:48.041Z,97048.00
2023-04-11T02:45:14.582Z,97044.63
2023-04-11T02:47:41.244Z,97039.53
2023-04-11T02:50:08.547Z,97017.06
2023-04-11T02:52:35.088Z,97031.88
2023-04-11T02:55:01.720Z,97031.03
2023-04-11T02:57:28.250Z,97003.44
2023-04-11T02:59:54.733Z,97036.19
2023-04-11T03:02:23.464Z,97034.44
2023-04-11T03:04:50.176Z,97042.88
2023-04-11T03:07:16.728Z,97039.44
2023-04-11T03:09:43.343Z,97027.63
2023-04-11T03:12:09.947Z,97045.38
2023-04-11T03:14:36.452Z,97050.47
2023-04-11T03:17:02.912Z,97039.50
2023-04-11T03:19:29.471Z,97031.88
2023-04-11T03:21:56.024Z,97041.25
2023-04-11T03:24:22.581Z,97027.66
2023-04-11T03:26:49.119Z,97021.69
2023-04-11T03:29:16.640Z,97003.84
2023-04-11T03:31:43.305Z,97003.03
2023-04-11T03:34:09.839Z,96997.94
2023-04-11T03:36:36.337Z,96991.94
2023-04-11T03:39:03.819Z,96986.75
2023-04-11T03:41:30.373Z,96983.25
2023-04-11T03:43:56.889Z,96986.75
2023-04-11T03:46:23.529Z,96934.09
2023-04-11T03:48:50.244Z,96985.19
2023-04-11T03:51:16.833Z,96985.19
2023-04-11T03:53:43.374Z,96991.09
2023-04-11T03:56:10.343Z,96987.63
2023-04-11T03:58:37.084Z,96987.66
2023-04-11T04:01:03.743Z,96988.47
2023-04-11T04:03:30.631Z,96989.44
2023-04-11T04:05:57.289Z,96987.66
2023-04-11T04:08:23.803Z,96980.09
2023-04-11T04:10:50.392Z,96960.16
2023-04-11T04:13:16.973Z,96975.75
2023-04-11T04:15:43.575Z,96964.59
2023-04-11T04:18:10.386Z,96975.81
2023-04-11T04:20:36.991Z,96983.53
2023-04-11T04:23:04.643Z,96983.50
2023-04-11T04:25:31.299Z,96981.88
2023-04-11T04:27:58.202Z,96986.97
2023-04-11T04:30:28.633Z,96976.78
2023-04-11T04:33:00.015Z,96970.75
2023-04-11T04:35:26.793Z,96979.38
2023-04-11T04:37:54.191Z,96977.69
2023-04-11T04:40:21.370Z,96977.59
2023-04-11T04:42:58.173Z,96980.25
2023-04-11T04:45:25.977Z,96975.97
2023-04-11T04:47:52.556Z,96986.09
2023-04-11T04:50:19.735Z,96976.63
2023-04-11T04:52:46.555Z,96992.16
2023-04-11T04:55:13.875Z,97004.94
2023-04-11T04:57:40.577Z,96999.78
2023-04-11T05:00:11.436Z,97018.56
2023-04-11T05:02:38.211Z,96996.41
2023-04-11T05:05:05.388Z,96986.78
2023-04-11T05:07:31.953Z,97001.56
2023-04-11T05:09:58.513Z,97004.06
2023-04-11T05:12:27.246Z,97022.75
2023-04-11T05:14:55.500Z,97027.03
2023-04-11T05:17:24.699Z,97022.81
2023-04-11T05:19:52.230Z,97023.53
2023-04-11T05:22:18.808Z,97034.69
2023-04-11T05:24:45.394Z,97039.66
2023-04-11T05:27:13.368Z,97038.88
2023-04-11T05:29:40.038Z,97048.31
2023-04-11T05:32:06.600Z,97042.34
2023-04-11T05:34:34.357Z,97042.38
2023-04-11T05:37:01.441Z,97051.78
2023-04-11T05:39:28.031Z,97045.84
2023-04-11T05:41:54.613Z,97050.97
2023-04-11T05:44:21.272Z,97038.22
2023-04-11T05:46:47.790Z,97034.78
2023-04-11T05:49:14.358Z,97050.06
2023-04-11T05:51:41.038Z,97047.53
2023-04-11T05:54:07.640Z,97051.78
2023-04-11T05:56:35.260Z,97052.63
2023-04-11T05:59:01.845Z,97048.28
2023-04-11T06:01:30.152Z,97056.81
2023-04-11T06:03:57.579Z,97063.63
2023-04-11T06:06:24.648Z,97060.09
2023-04-11T06:08:51.743Z,97055.97
2023-04-11T06:11:18.308Z,97039.78
2023-04-11T06:13:44.837Z,97040.66
2023-04-11T06:16:11.452Z,97039.00
2023-04-11T06:18:38.031Z,97035.56
2023-04-11T06:21:04.727Z,97033.03
2023-04-11T06:23:31.222Z,97026.22
2023-04-11T06:25:57.723Z,97023.44
2023-04-11T06:28:24.249Z,97041.47
2023-04-11T06:30:52.195Z,97025.06
2023-04-11T06:33:18.818Z,96978.44
2023-04-11T06:35:45.714Z,97040.59
2023-04-11T06:38:12.317Z,97053.31
2023-04-11T06:40:38.838Z,97060.97
2023-04-11T06:43:05.526Z,97064.31
2023-04-11T06:45:32.031Z,97068.44
2023-04-11T06:47:58.659Z,97063.47
2023-04-11T06:50:25.265Z,97060.94
2023-04-11T06:52:51.893Z,97069.31
2023-04-11T06:55:18.555Z,97077.00
2023-04-11T06:57:45.252Z,97080.34
2023-04-11T07:00:13.406Z,97086.44
2023-04-11T07:02:40.128Z,97082.06
2023-04-11T07:05:09.245Z,97078.59
2023-04-11T07:07:36.371Z,97086.28
2023-04-11T07:10:03.273Z,97084.63
2023-04-11T07:12:29.759Z,97089.84
2023-04-11T07:14:57.591Z,97089.03
2023-04-11T07:17:24.324Z,97063.88
2023-04-11T07:19:50.970Z,97105.19
2023-04-11T07:22:17.488Z,97104.31
2023-04-11T07:24:46.538Z,97106.81
2023-04-11T07:27:14.289Z,97111.13
2023-04-11T07:29:41.168Z,97144.28
2023-04-11T07:32:07.756Z,97169.81
2023-04-11T07:34:34.298Z,97165.50
2023-04-11T07:37:01.112Z,97172.41
2023-04-11T07:39:27.853Z,97161.31
2023-04-11T07:41:54.445Z,97167.31
2023-04-11T07:44:21.937Z,97169.84
2023-04-11T07:46:48.957Z,97180.00
2023-04-11T07:49:15.643Z,97183.47
2023-04-11T07:51:42.164Z,97193.63
2023-04-11T07:54:09.555Z,97196.22
2023-04-11T07:56:36.181Z,97191.13
2023-04-11T07:59:03.332Z,97198.78
2023-04-11T08:01:29.835Z,97191.91
2023-04-11T08:03:56.735Z,97185.91
2023-04-11T08:06:23.734Z,97192.00
2023-04-11T08:08:50.639Z,97189.47
2023-04-11T08:11:17.227Z,97192.75
2023-04-11T08:13:43.752Z,97185.91
2023-04-11T08:16:11.763Z,97191.88
2023-04-11T08:18:42.012Z,97193.50
2023-04-11T08:21:10.808Z,97219.91
2023-04-11T08:23:37.529Z,97219.88
2023-04-11T08:26:04.074Z,97211.44
2023-04-11T08:28:30.797Z,97218.09
2023-04-11T08:30:58.426Z,97245.56
2023-04-11T08:33:26.140Z,97243.69
2023-04-11T08:35:52.801Z,97256.59
2023-04-11T08:38:19.737Z,97247.13
2023-04-11T08:40:46.447Z,97246.41
2023-04-11T08:43:13.075Z,97231.94
2023-04-11T08:45:40.141Z,97248.94
2023-04-11T08:48:07.257Z,97248.06
2023-04-11T08:50:34.702Z,97225.66
2023-04-11T08:53:04.304Z,97208.16
2023-04-11T08:55:31.294Z,97222.59
2023-04-11T08:57:59.606Z,97235.25
2023-04-11T09:00:28.927Z,97253.19
2023-04-11T09:02:56.985Z,97241.09
2023-04-11T09:05:27.209Z,97250.56
2023-04-11T09:07:54.889Z,97252.28
2023-04-11T09:10:22.084Z,97259.09
2023-04-11T09:12:48.711Z,97262.53
2023-04-11T09:15:22.457Z,97244.69
2023-04-11T09:17:49.909Z,97250.56
2023-04-11T09:20:20.434Z,97249.72
2023-04-11T09:22:49.953Z,97246.31
2023-04-11T09:25:18.145Z,97238.56
2023-04-11T09:27:44.690Z,97236.97
2023-04-11T09:30:20.056Z,97218.69
2023-04-11T09:32:48.647Z,97235.06
2023-04-11T09:35:20.544Z,97259.03
2023-04-11T09:37:47.683Z,97256.50
2023-04-11T09:40:14.996Z,97258.09
2023-04-11T09:42:42.168Z,97260.69
2023-04-11T09:45:18.143Z,97273.53
2023-04-11T09:47:45.866Z,97265.91
2023-04-11T09:50:12.915Z,97263.19
2023-04-11T09:52:41.150Z,97268.44
2023-04-11T09:55:08.170Z,97261.53
2023-04-11T09:57:34.868Z,97271.78
2023-04-11T10:00:06.569Z,97263.09
2023-04-11T10:02:33.224Z,97280.28
2023-04-11T10:05:04.250Z,97258.06
2023-04-11T10:07:30.925Z,97262.47
2023-04-11T10:09:57.584Z,97209.47
2023-04-11T10:12:33.486Z,97264.97
2023-04-11T10:15:08.280Z,97255.75
2023-04-11T10:17:34.975Z,97260.75
2023-04-11T10:20:01.655Z,97245.44
2023-04-11T10:22:43.925Z,97254.88
2023-04-11T10:25:17.649Z,97250.66
2023-04-11T10:27:50.694Z,97247.13
2023-04-11T10:30:17.233Z,97253.16
2023-04-11T10:33:09.565Z,97259.16
2023-04-11T10:35:36.212Z,97256.59
2023-04-11T10:38:02.756Z,97259.09
2023-04-11T10:40:29.322Z,97256.41
2023-04-11T10:42:57.357Z,97272.78
2023-04-11T10:45:25.027Z,97274.44
2023-04-11T10:47:51.533Z,97282.13
2023-04-11T10:50:27.251Z,97286.41
2023-04-11T10:52:54.236Z,97258.06
2023-04-11T10:55:21.076Z,97280.31
2023-04-11T10:58:05.644Z,97283.03
2023-04-11T11:01:00.899Z,97271.16
2023-04-11T11:03:30.380Z,97261.59
2023-04-11T11:06:04.664Z,97267.72
2023-04-11T11:08:38.133Z,97255.75
2023-04-11T11:11:08.694Z,97256.66
2023-04-11T11:13:41.322Z,97267.81
2023-04-11T11:16:08.716Z,97267.88
2023-04-11T11:18:35.456Z,97265.28
2023-04-11T11:21:01.986Z,97262.66
2023-04-11T11:23:28.568Z,97276.34
2023-04-11T11:25:55.812Z,97269.53
2023-04-11T11:28:22.593Z,97273.84
2023-04-11T11:30:56.582Z,97195.84
2023-04-11T11:33:26.752Z,97274.63
2023-04-11T11:36:00.559Z,97276.38
2023-04-11T11:38:30.472Z,97267.81
2023-04-11T11:40:57.809Z,97272.13
2023-04-11T11:43:27.521Z,97251.59
2023-04-11T11:46:08.790Z,97258.50
2023-04-11T11:48:35.665Z,97254.38
2023-04-11T11:51:02.261Z,97244.78
2023-04-11T11:53:28.837Z,97267.13
2023-04-11T11:55:56.838Z,97250.94
2023-04-11T11:58:23.554Z,97256.78
2023-04-11T12:00:50.911Z,97262.09
2023-04-11T12:03:18.833Z,97258.69
2023-04-11T12:05:47.675Z,97266.28
2023-04-11T12:08:14.270Z,97264.53
2023-04-11T12:10:42.309Z,97251.78
2023-04-11T12:13:15.067Z,97267.13
2023-04-11T12:15:43.356Z,97272.22
2023-04-11T12:18:09.988Z,97267.91
2023-04-11T12:20:36.585Z,97267.09
2023-04-11T12:23:03.111Z,97267.91
2023-04-11T12:25:30.235Z,97276.50
2023-04-11T12:27:56.829Z,97275.56
2023-04-11T12:30:23.393Z,97275.47
2023-04-11T12:32:50.014Z,97274.69
2023-04-11T12:35:16.628Z,97246.31
2023-04-11T12:37:44.202Z,97267.09
2023-04-11T12:40:12.307Z,97258.59
2023-04-11T12:42:49.401Z,97257.63
2023-04-11T12:45:22.212Z,97270.38
2023-04-11T12:47:48.809Z,97269.44
2023-04-11T12:50:15.460Z,97274.69
2023-04-11T12:52:42.004Z,97283.03
2023-04-11T12:55:09.402Z,97278.66
2023-04-11T12:57:36.614Z,97288.22
2023-04-11T13:00:07.127Z,97279.59
2023-04-11T13:02:42.049Z,97279.59
2023-04-11T13:05:10.911Z,97276.19
2023-04-11T13:07:37.908Z,97280.50
2023-04-11T13:10:06.674Z,97282.19
2023-04-11T13:12:34.202Z,97292.38
2023-04-11T13:15:01.009Z,97268.59
2023-04-11T13:17:27.540Z,97255.75
2023-04-11T13:19:54.058Z,97262.56
2023-04-11T13:22:21.082Z,97259.19
2023-04-11T13:24:47.649Z,97262.56
2023-04-11T13:27:14.208Z,97260.06
2023-04-11T13:29:41.138Z,97250.75
2023-04-11T13:32:07.726Z,97254.97
2023-04-11T13:34:34.349Z,97237.81
2023-04-11T13:37:00.948Z,97253.28
2023-04-11T13:39:30.562Z,97244.72
2023-04-11T13:41:57.121Z,97252.41
2023-04-11T13:44:23.650Z,97243.94
2023-04-11T13:46:50.219Z,97242.22
2023-04-11T13:49:16.707Z,97218.94
2023-04-11T13:51:43.265Z,97214.56
2023-04-11T13:54:09.816Z,97238.84
2023-04-11T13:56:36.513Z,97241.41
2023-04-11T13:59:04.533Z,97226.78
2023-04-11T14:01:31.506Z,97235.44
2023-04-11T14:03:58.296Z,97157.56
2023-04-11T14:06:25.028Z,97232.06
2023-04-11T14:08:52.034Z,97173.09
2023-04-11T14:11:18.541Z,97235.34
2023-04-11T14:13:45.052Z,97227.50
2023-04-11T14:16:11.635Z,97243.16
2023-04-11T14:18:38.160Z,97245.75
2023-04-11T14:21:08.258Z,97246.53
2023-04-11T14:23:34.778Z,97244.00
2023-04-11T14:26:01.351Z,97230.25
2023-04-11T14:28:27.853Z,97231.16
2023-04-11T14:30:55.666Z,97236.44
2023-04-11T14:33:23.305Z,97237.28
2023-04-11T14:35:50.793Z,97233.09
2023-04-11T14:38:17.688Z,97225.31
2023-04-11T14:40:44.392Z,97236.34
2023-04-11T14:43:11.300Z,97225.34
2023-04-11T14:45:37.924Z,97238.97
2023-04-11T14:48:04.782Z,97226.13
2023-04-11T14:50:31.420Z,97241.63
2023-04-11T14:52:58.036Z,97233.00
2023-04-11T14:55:24.580Z,97243.34
2023-04-11T14:57:52.654Z,97239.81
2023-04-11T15:00:22.375Z,97239.81
2023-04-11T15:02:54.469Z,97257.75
2023-04-11T15:05:21.567Z,97272.22
2023-04-11T15:07:48.875Z,97268.84
2023-04-11T15:10:17.307Z,97273.06
2023-04-11T15:12:43.976Z,97283.38
2023-04-11T15:15:11.183Z,97286.78
2023-04-11T15:17:48.496Z,97285.03
2023-04-11T15:20:15.654Z,97291.06
2023-04-11T15:22:43.397Z,97280.03
2023-04-11T15:25:14.437Z,97286.84
2023-04-11T15:27:41.192Z,97287.63
2023-04-11T15:30:08.648Z,97281.75
2023-04-11T15:32:35.329Z,97278.22
2023-04-11T15:35:02.071Z,97261.00
2023-04-11T15:37:29.050Z,97278.34
2023-04-11T15:39:57.641Z,97271.44
2023-04-11T15:42:24.591Z,97279.28
2023-04-11T15:44:51.217Z,97273.34
2023-04-11T15:47:18.349Z,97247.50
2023-04-11T15:49:44.987Z,97258.94
2023-04-11T15:52:11.860Z,97269.22
2023-04-11T15:54:38.431Z,97277.78
2023-04-11T15:57:04.913Z,97270.16
2023-04-11T15:59:31.473Z,97265.00
2023-04-11T16:01:58.121Z,97263.47
2023-04-11T16:04:25.699Z,97263.53
2023-04-11T16:06:52.623Z,97259.31
2023-04-11T16:09:19.275Z,97262.59
2023-04-11T16:11:46.019Z,97272.09
2023-04-11T16:14:12.798Z,97273.88
2023-04-11T16:16:39.507Z,97255.75
2023-04-11T16:19:06.554Z,97264.50
2023-04-11T16:21:33.116Z,97266.22
2023-04-11T16:23:59.805Z,97263.63
2023-04-11T16:26:26.995Z,97266.28
2023-04-11T16:28:53.592Z,97256.72
2023-04-11T16:31:24.480Z,97260.16
2023-04-11T16:33:52.692Z,97252.50
2023-04-11T16:36:20.392Z,97263.72
2023-04-11T16:38:47.639Z,97266.28
2023-04-11T16:41:15.499Z,97260.25
2023-04-11T16:43:42.024Z,97236.91
2023-04-11T16:46:13.179Z,97260.19
2023-04-11T16:48:40.886Z,97261.91
2023-04-11T16:51:07.822Z,97263.56
2023-04-11T16:53:34.841Z,97257.56
2023-04-11T16:56:01.444Z,97257.59
2023-04-11T16:58:28.497Z,97249.09
2023-04-11T17:00:55.382Z,97255.84
2023-04-11T17:03:22.162Z,97270.25
2023-04-11T17:05:48.840Z,97254.06
2023-04-11T17:08:17.206Z,97254.00
2023-04-11T17:10:44.239Z,97258.28
2023-04-11T17:13:11.926Z,97259.16
2023-04-11T17:15:38.456Z,97264.28
2023-04-11T17:18:05.113Z,97259.16
2023-04-11T17:20:31.668Z,97259.97
2023-04-11T17:22:58.221Z,97260.84
2023-04-11T17:25:24.759Z,97265.06
2023-04-11T17:27:51.328Z,97254.81
2023-04-11T17:30:18.020Z,97253.81
2023-04-11T17:35:14.470Z,97264.97
2023-04-11T17:37:41.073Z,97272.63
2023-04-11T17:40:12.185Z,97269.09
2023-04-11T17:42:38.999Z,97257.72
2023-04-11T17:45:16.736Z,97271.63
2023-04-11T17:47:43.987Z,97262.03
2023-04-11T17:50:11.556Z,97282.78
2023-04-11T17:52:46.193Z,97266.34
2023-04-11T17:55:14.227Z,97278.41
2023-04-11T17:57:40.839Z,97276.78
2023-04-11T18:00:28.401Z,97275.84
2023-04-11T18:02:57.743Z,97279.31
2023-04-11T18:05:28.290Z,97286.97
2023-04-11T18:07:57.256Z,97279.22
2023-04-11T18:10:24.614Z,97275.66
2023-04-11T18:12:51.735Z,97299.78
2023-04-11T18:15:18.429Z,97303.19
2023-04-11T18:17:45.340Z,97304.94
2023-04-11T18:20:12.339Z,97308.31
2023-04-11T18:22:40.085Z,97308.31
2023-04-11T18:25:07.304Z,97309.22
2023-04-11T18:27:34.318Z,97306.56
2023-04-11T18:30:01.125Z,97302.19
2023-04-11T18:32:30.147Z,97315.13
2023-04-11T18:35:03.649Z,97320.28
2023-04-11T18:37:34.043Z,97324.50
2023-04-11T18:40:00.650Z,97316.75
2023-04-11T18:42:27.218Z,97323.63
2023-04-11T18:44:54.288Z,97325.28
2023-04-11T18:47:21.129Z,97328.78
2023-04-11T18:49:47.716Z,97318.53
2023-04-11T18:52:14.343Z,97318.53
2023-04-11T18:54:40.965Z,97324.41
2023-04-11T18:57:08.055Z,97319.41
2023-04-11T18:59:39.529Z,97327.88
2023-04-11T19:02:07.264Z,97317.50
2023-04-11T19:04:34.044Z,97321.03
2023-04-11T19:07:01.323Z,97321.91
2023-04-11T19:09:28.080Z,97315.88
2023-04-11T19:11:54.651Z,97326.13
2023-04-11T19:14:21.412Z,97313.38
2023-04-11T19:16:48.022Z,97316.72
2023-04-11T19:19:14.592Z,97319.34
2023-04-11T19:21:42.093Z,97315.84
2023-04-11T19:24:09.630Z,97314.22
2023-04-11T19:26:36.288Z,97322.69
2023-04-11T19:29:02.807Z,97314.88
2023-04-11T19:31:32.422Z,97324.31
2023-04-11T19:34:00.195Z,97320.94
2023-04-11T19:36:29.343Z,97317.59
2023-04-11T19:38:55.906Z,97289.84
2023-04-11T19:41:22.532Z,97315.03
2023-04-11T19:43:49.190Z,97317.53
2023-04-11T19:46:16.184Z,97299.50
2023-04-11T19:48:43.215Z,97304.84
2023-04-11T19:51:10.330Z,97297.03
2023-04-11T19:53:38.103Z,97301.34
2023-04-11T19:56:08.698Z,97298.81
2023-04-11T19:58:35.306Z,97278.13
2023-04-11T20:01:02.627Z,97293.75
2023-04-11T20:03:29.451Z,97286.00
2023-04-11T20:05:56.523Z,97283.38
2023-04-11T20:08:23.090Z,97288.66
2023-04-11T20:10:49.702Z,97287.72
2023-04-11T20:13:19.220Z,97295.47
2023-04-11T20:15:45.760Z,97290.31
2023-04-11T20:18:12.471Z,97289.53
2023-04-11T20:20:39.144Z,97286.97
2023-04-11T20:23:06.356Z,97292.94
2023-04-11T20:25:33.587Z,97286.88
2023-04-11T20:28:00.323Z,97287.72
2023-04-11T20:30:26.919Z,97282.56
2023-04-11T20:32:53.545Z,97272.97
2023-04-11T20:35:20.222Z,97292.03
2023-04-11T20:37:47.830Z,97277.28
2023-04-11T20:40:14.774Z,97297.13
2023-04-11T20:42:42.543Z,97277.38
2023-04-11T20:45:10.732Z,97285.19
2023-04-11T20:47:40.356Z,97268.06
2023-04-11T20:50:08.905Z,97257.66
2023-04-11T20:52:35.573Z,97282.63
2023-04-11T20:55:02.783Z,97286.06
2023-04-11T20:57:33.629Z,97279.13
2023-04-11T21:00:00.936Z,97284.28
2023-04-11T21:02:27.722Z,97283.50
2023-04-11T21:04:55.535Z,97268.06
2023-04-11T21:07:22.102Z,97275.84
2023-04-11T21:09:49.024Z,97270.72
2023-04-11T21:12:15.809Z,97268.16
2023-04-11T21:14:42.373Z,97268.19
2023-04-11T21:17:09.174Z,97250.06
2023-04-11T21:19:36.328Z,97260.56
2023-04-11T21:22:03.530Z,97265.59
2023-04-11T21:24:33.745Z,97251.88
2023-04-11T21:27:01.327Z,97260.56
2023-04-11T21:29:28.181Z,97196.53
2023-04-11T21:31:54.753Z,97248.59
2023-04-11T21:34:21.296Z,97240.88
2023-04-11T21:36:47.805Z,97241.81
2023-04-11T21:39:14.312Z,97245.25
2023-04-11T21:41:41.156Z,97228.09
2023-04-11T21:44:07.688Z,97237.56
2023-04-11T21:46:34.522Z,97234.16
2023-04-11T21:49:01.138Z,97235.88
2023-04-11T21:51:28.159Z,97232.41
2023-04-11T21:53:54.747Z,97235.00
2023-04-11T21:56:21.396Z,97232.44
2023-04-11T21:58:47.948Z,97230.78
2023-04-11T22:01:15.341Z,97219.66
2023-04-11T22:03:42.646Z,97203.28
2023-04-11T22:06:10.258Z,97217.06
2023-04-11T22:08:39.014Z,97194.59
2023-04-11T22:11:10.246Z,97211.13
2023-04-11T22:13:40.062Z,97212.88
2023-04-11T22:16:07.328Z,97216.22
2023-04-11T22:18:46.142Z,97205.88
2023-04-11T22:21:20.056Z,97200.00
2023-04-11T22:23:54.373Z,97205.13
2023-04-11T22:26:29.292Z,97206.03
2023-04-11T22:28:57.324Z,97204.31
2023-04-11T22:31:30.258Z,97208.56
2023-04-11T22:33:57.608Z,97212.88
2023-04-11T22:36:24.521Z,97195.69
2023-04-11T22:38:51.062Z,97199.25
2023-04-11T22:41:17.919Z,97188.09
2023-04-11T22:43:44.517Z,97188.97
2023-04-11T22:46:11.179Z,97199.25
2023-04-11T22:48:38.113Z,97195.03
2023-04-11T22:51:06.043Z,97186.41
2023-04-11T22:53:34.310Z,97183.03
2023-04-11T22:56:02.020Z,97175.34
2023-04-11T22:58:28.619Z,97187.38
2023-04-11T23:00:55.707Z,97176.22
2023-04-11T23:03:22.435Z,97176.31
2023-04-11T23:05:49.677Z,97185.66
2023-04-11T23:08:16.682Z,97165.22
2023-04-11T23:10:43.264Z,97155.84
2023-04-11T23:13:09.837Z,97158.44
2023-04-11T23:15:37.366Z,97154.19
2023-04-11T23:18:04.087Z,97143.94
2023-04-11T23:20:30.966Z,97130.31
2023-04-11T23:22:58.395Z,97142.28
2023-04-11T23:25:25.308Z,97137.97
2023-04-11T23:27:52.574Z,97123.31
2023-04-11T23:30:20.094Z,97137.13
2023-04-11T23:32:47.073Z,97125.25
2023-04-11T23:35:16.744Z,97116.63
2023-04-11T23:37:43.377Z,97116.69
2023-04-11T23:40:11.206Z,97104.72
2023-04-11T23:42:38.476Z,97111.50
2023-04-11T23:45:06.658Z,97103.97
2023-04-11T23:47:33.787Z,97092.84
2023-04-11T23:50:02.618Z,97098.88
2023-04-11T23:52:29.263Z,97089.47
2023-04-11T23:54:56.437Z,97086.97
2023-04-11T23:57:23.381Z,97061.28
2023-04-11T23:59:49.883Z,97072.53
